Aeroporto :
LOGIN :

Iscrizione | Disclaimer

   EN    FR    IT 

 










Sommario :    VFR   VFR Marginale   IFR   IFR Intensivo   IFR Molto Intensivo
Visibilità : 
Base nubi : 
>= 8 km
>= 3000ft
5 / 8 km
1000 / 3000 ft
1500m / 5 km
500 / 1000 ft
800 / 1500m
200 / 500 ft
< 800m
< 200 ft
Simboli :   Temporali  Nebbia  Neve Forte  Precipitazioni Forti  Vento > 20 kt
SIGMETs :   Varie  Temporali  Ghiacco  Turbolenza  Onda orograficha  Ceneri Vulcaniche







- Altitudine del aeroporto : 659 ft
- Codice IATA : LGG


EBLG - Liège

ULTIMO METAR :
  • 231950Z 20016KT 3000 -DZ FEW006 BKN008 08/08 Q1020 TEMPO 20017G27KT 2500 DZ

METARs OBSOLETI :
  • 231920Z 20017G29KT 9999 -DZ BKN008 08/07 Q1020 TEMPO 20020G30KT 3500 -DZ
  • 231850Z 20020KT 9999 BKN008 08/07 Q1020 TEMPO 20020G30KT 3500 -DZ
  • 231820Z 20018KT 9999 BKN010 09/07 Q1020 NOSIG
  • 231750Z 21017KT 9999 FEW010 BKN014 08/06 Q1020 NOSIG
  • 231720Z 20018KT 9999 FEW010 SCT020 08/06 Q1020 NOSIG

TAF TAF EBLG
Valido dal 23 a 18 ore il 25 a 00 ore UTC


231703Z 2318/2424 22012KT 9999 SCT012 BKN018
BECMG 2318/2320 SCT006 BKN011
TEMPO 2318/2412 3000 -RADZ BR SCT003 BKN007
PROB30
TEMPO 2322/2412 1500 -DZ BKN004
TEMPO 2410/2422 22016G35KT
BECMG 2412/2414 SCT015 SCT030
TEMPO 2422/2424 4000 RA SHRA SCT010 BKN014
Nessun NOTAM noto per questo aeroporto.



MetMap, La meteo Aeronautica in un colpo d'occhio ! - Copyright ORBIFLY Dicembre 2007 - Disclaimer

ORBIFLY MET'MAP TEAM :

Programmazione e sviluppo : Alexandra Zaïnal
Concezione e sviluppo : Baudouin d'Aumeries
Co-Programmazione e sviluppo : Marc-Olivier Méhu
Supporto tecnico e logistico : Manuel Goepfert
Aiuto per la traduzione : Arnaldo La Scala

Contatto : metmap@orbifly.com




FONTI E CREDITI :

   NOAA